Portada
Imágenes satélite Pronóstico 15 díasClimaPredicción Marítima Ciclones Rayo AeropuertosFAQ Noticias Acerca
El tiempo : Europa África América del Norte América del Sur Asia Australia-Oceanía Otros
Idiomas Contacto

Humberside, Inglaterra

latitud: 53-35N, longitud: 000-21W, altitud: 31 m


METAR: EGNJ 251250Z 21019KT 9999 FEW020 BKN040 14/10 Q1014
TAF: EGNJ 251057Z 2512/2521 21015KT 9999 FEW030

Hora: 14:24 (13:24 UTC)

Observación

El informe se hizo hace 34 minutos, a las 12:50 UTC
Viento 19 kt del sur-suroeste
Temperatura 14°C
Humedad 77%
Presión 1014 hPa
Visibilidad 10 km o más
Escasas nubes a una altura de 2000 ft
Cielo nuboso a una altura de 4000 ft

Cambiar las unidades

Pronóstico

El informe se hizo hace 2 horas y 27 minutos, a las 10:57 UTC
Pronóstico válido del 25 a las 12 UTC al 25 a las 21 UTC
Viento 15 kt del sur-suroeste
Visibilidad 10 km o más
Escasas nubes a una altura de 3000 ft
La información que se ofrece en estas páginas está sujeta a una cláusula de exención de responsabilidad
El tiempo : Europa África América del Norte América del Sur Asia Australia-Oceanía Otros
Imágenes satélite Pronóstico 15 díasClimaPredicción Marítima Ciclones Rayo AeropuertosFAQ Idiomas Contacto Noticias Acerca